Time;durP1;ratioP1;P1;durP2;ratioP2;P2;SDS_P1;SDS_P2;PMS_P1;PMS_P2;Temp;Humidity;BMP_temperature;BMP_pressure;BME280_temperature;BME280_humidity;BME280_pressure;Samples;Min_cycle;Max_cycle;Signal;HPM_P1;HPM_P2
2022/08/17 00:01:07;;;;;;;0.43;0.20;;;23.90;83.80;;;;;;4895046;29;20115;-74
2022/08/17 00:03:41;;;;;;;0.30;0.10;;;24.10;84.30;;;;;;4908020;29;20032;-75
2022/08/17 00:06:15;;;;;;;0.13;0.08;;;24.50;82.00;;;;;;4909612;29;20498;-75
2022/08/17 00:09:04;;;;;;;0.60;0.30;;;24.60;81.70;;;;;;4892532;29;20578;-74
2022/08/17 00:11:36;;;;;;;0.40;0.10;;;24.70;82.30;;;;;;4910171;29;20039;-76
2022/08/17 00:14:15;;;;;;;0.22;0.10;;;24.50;80.70;;;;;;4907821;29;20505;-75
2022/08/17 00:16:49;;;;;;;0.50;0.20;;;24.50;81.70;;;;;;4910388;29;20067;-74
2022/08/17 00:19:21;;;;;;;0.20;0.10;;;25.00;79.70;;;;;;4913311;29;20032;-76
2022/08/17 00:21:51;;;;;;;1.00;0.20;;;25.00;80.90;;;;;;4901557;29;20051;-75
2022/08/17 00:24:19;;;;;;;4.13;0.20;;;25.50;78.80;;;;;;4907964;29;20028;-74
2022/08/17 00:26:47;;;;;;;1.58;0.20;;;25.60;78.90;;;;;;4910428;29;20040;-74
2022/08/17 00:29:14;;;;;;;0.47;0.20;;;25.80;78.20;;;;;;4896103;29;20112;-75
2022/08/17 00:31:42;;;;;;;0.20;0.20;;;25.80;78.00;;;;;;4919137;29;20042;-73
2022/08/17 00:34:09;;;;;;;0.90;0.28;;;25.90;77.30;;;;;;4903385;29;20479;-75
2022/08/17 00:36:37;;;;;;;0.38;0.20;;;25.80;77.40;;;;;;4909911;29;20502;-75
2022/08/17 00:39:05;;;;;;;0.52;0.43;;;26.20;76.10;;;;;;4879797;29;20035;-74
2022/08/17 00:41:34;;;;;;;0.43;0.13;;;26.60;76.50;;;;;;4912069;29;20044;-74
2022/08/17 00:44:05;;;;;;;3.70;0.30;;;26.40;76.00;;;;;;4908395;29;20035;-74
2022/08/17 00:46:38;;;;;;;0.75;0.65;;;26.30;74.30;;;;;;4910141;29;20156;-75
2022/08/17 00:49:08;;;;;;;0.20;0.10;;;26.50;75.10;;;;;;4903512;29;20031;-74
2022/08/17 00:51:46;;;;;;;0.95;0.43;;;26.90;75.00;;;;;;4902368;29;20040;-75
2022/08/17 00:54:17;;;;;;;0.30;0.10;;;26.90;75.30;;;;;;4906800;29;20099;-75
2022/08/17 00:57:01;;;;;;;0.38;0.20;;;27.00;73.70;;;;;;4909719;29;20032;-75
2022/08/17 00:59:34;;;;;;;0.20;0.10;;;26.90;74.40;;;;;;4907892;29;20114;-76
2022/08/17 01:02:02;;;;;;;0.90;0.20;;;26.90;73.00;;;;;;4904393;29;20379;-76
2022/08/17 01:04:30;;;;;;;0.45;0.20;;;27.10;74.30;;;;;;4903390;29;20075;-74
2022/08/17 01:06:59;;;;;;;1.25;0.40;;;27.00;73.80;;;;;;4906530;29;20031;-75
2022/08/17 01:09:27;;;;;;;0.30;0.20;;;27.00;73.30;;;;;;4910885;29;20082;-74
2022/08/17 01:11:54;;;;;;;1.73;0.28;;;27.20;73.70;;;;;;4906282;29;20020;-74
2022/08/17 01:14:24;;;;;;;0.30;0.10;;;27.40;74.00;;;;;;4912989;29;20059;-75
2022/08/17 01:16:53;;;;;;;1.48;0.47;;;27.50;73.20;;;;;;4887940;29;20586;-76
2022/08/17 01:19:28;;;;;;;1.45;0.40;;;27.50;72.70;;;;;;4903762;29;20063;-74
2022/08/17 01:22:00;;;;;;;1.92;0.30;;;27.90;72.20;;;;;;4899397;29;20060;-74
2022/08/17 01:24:28;;;;;;;0.63;0.52;;;27.50;71.00;;;;;;4897335;29;20076;-74
2022/08/17 01:26:56;;;;;;;0.90;0.45;;;27.20;72.80;;;;;;4901533;29;20036;-74
2022/08/17 01:29:24;;;;;;;0.40;0.20;;;27.20;73.70;;;;;;4899584;29;20052;-74
2022/08/17 01:31:57;;;;;;;0.38;0.30;;;27.50;72.60;;;;;;4903452;29;20104;-75
2022/08/17 01:34:25;;;;;;;0.40;0.20;;;27.50;70.80;;;;;;4903357;29;20040;-75
2022/08/17 01:36:53;;;;;;;0.20;0.15;;;27.50;71.30;;;;;;4902450;29;20515;-75
2022/08/17 01:39:51;;;;;;;0.77;0.20;;;28.00;71.90;;;;;;4906466;29;20071;-75
2022/08/17 01:42:47;;;;;;;3.38;0.43;;;28.20;70.30;;;;;;4905526;29;20051;-75
2022/08/17 01:45:25;;;;;;;0.43;0.20;;;28.10;69.60;;;;;;4900144;29;20051;-75
2022/08/17 01:47:53;;;;;;;1.17;0.20;;;28.00;69.90;;;;;;4905622;29;20067;-75
2022/08/17 01:50:25;;;;;;;0.65;0.30;;;28.20;68.90;;;;;;4914006;29;20043;-75
2022/08/17 01:53:01;;;;;;;0.30;0.20;;;28.30;70.00;;;;;;4891786;29;20096;-75
2022/08/17 01:56:11;;;;;;;3.33;0.20;;;28.00;69.40;;;;;;4902116;29;20035;-75
2022/08/17 01:58:40;;;;;;;1.50;0.30;;;28.00;69.80;;;;;;4862450;29;20218;-76
2022/08/17 02:01:09;;;;;;;0.70;0.28;;;28.10;70.50;;;;;;4907413;29;20181;-75
2022/08/17 02:03:37;;;;;;;2.25;0.30;;;28.30;69.50;;;;;;4899799;29;20089;-77
2022/08/17 02:06:06;;;;;;;0.95;0.20;;;28.10;69.70;;;;;;4906747;29;20043;-76
2022/08/17 02:08:34;;;;;;;0.32;0.17;;;28.20;68.70;;;;;;4887330;29;20040;-78
2022/08/17 02:11:05;;;;;;;0.30;0.20;;;27.80;68.80;;;;;;4886584;29;20039;-74
2022/08/17 02:13:33;;;;;;;0.45;0.30;;;27.80;70.50;;;;;;4901755;29;20052;-75
2022/08/17 02:16:01;;;;;;;0.40;0.20;;;27.80;70.10;;;;;;4903769;29;20056;-74
2022/08/17 02:18:29;;;;;;;0.88;0.40;;;27.70;70.00;;;;;;4903195;29;20481;-72
2022/08/17 02:20:56;;;;;;;2.65;0.20;;;27.60;68.50;;;;;;4903202;29;20112;-73
2022/08/17 02:23:26;;;;;;;0.57;0.22;;;27.60;70.80;;;;;;4904117;29;20032;-75
2022/08/17 02:25:55;;;;;;;0.15;0.10;;;27.50;68.50;;;;;;4903170;29;20028;-75
2022/08/17 02:28:22;;;;;;;2.92;0.28;;;27.40;69.50;;;;;;4902305;29;20028;-73
2022/08/17 02:30:50;;;;;;;0.43;0.20;;;27.40;70.00;;;;;;4905874;29;20614;-75
2022/08/17 02:33:17;;;;;;;0.25;0.10;;;27.40;71.20;;;;;;4899463;29;20058;-77
2022/08/17 02:35:45;;;;;;;0.50;0.10;;;27.50;70.30;;;;;;4901275;29;20404;-76
2022/08/17 02:38:12;;;;;;;0.60;0.20;;;27.50;70.20;;;;;;4907115;29;20032;-75
2022/08/17 02:40:40;;;;;;;0.82;0.40;;;27.30;67.50;;;;;;4909666;29;20040;-76
2022/08/17 02:43:09;;;;;;;0.40;0.10;;;27.30;67.90;;;;;;4882501;29;20068;-75
2022/08/17 02:45:37;;;;;;;1.13;0.20;;;27.00;67.40;;;;;;4900333;29;20045;-74
2022/08/17 02:48:04;;;;;;;0.30;0.20;;;26.60;65.90;;;;;;4908514;29;20032;-74
2022/08/17 02:50:32;;;;;;;1.67;0.10;;;26.60;68.30;;;;;;4909591;29;20135;-75
2022/08/17 02:52:59;;;;;;;0.73;0.10;;;26.30;68.30;;;;;;4910895;29;20044;-75
2022/08/17 02:55:36;;;;;;;0.82;0.20;;;26.60;69.30;;;;;;4910833;29;20119;-74
2022/08/17 02:58:04;;;;;;;1.60;0.20;;;26.60;68.30;;;;;;4897202;29;20035;-75
2022/08/17 03:00:35;;;;;;;1.27;0.17;;;26.60;68.90;;;;;;4915904;29;20103;-76
2022/08/17 03:03:05;;;;;;;0.30;0.15;;;26.70;67.20;;;;;;4901230;29;20100;-73
2022/08/17 03:05:34;;;;;;;0.45;0.10;;;26.60;67.10;;;;;;4908316;29;20032;-73
2022/08/17 03:08:02;;;;;;;0.40;0.10;;;26.50;69.60;;;;;;4902183;29;20040;-72
2022/08/17 03:10:30;;;;;;;0.55;0.28;;;26.70;71.20;;;;;;4907881;29;20028;-72
2022/08/17 03:12:58;;;;;;;0.63;0.10;;;26.70;68.10;;;;;;4909434;29;20060;-72
2022/08/17 03:15:29;;;;;;;0.25;0.10;;;26.60;68.20;;;;;;4913962;29;20339;-73
2022/08/17 03:17:57;;;;;;;0.30;0.20;;;26.70;70.90;;;;;;4905209;29;20060;-75
2022/08/17 03:20:26;;;;;;;0.20;0.20;;;26.80;69.70;;;;;;4917105;29;20066;-74
2022/08/17 03:22:56;;;;;;;0.32;0.10;;;26.60;69.10;;;;;;4911330;29;20116;-72
2022/08/17 03:25:30;;;;;;;0.68;0.50;;;26.60;68.40;;;;;;4910243;29;20059;-73
2022/08/17 03:27:58;;;;;;;0.90;0.22;;;26.50;68.00;;;;;;4909492;29;20146;-73
2022/08/17 03:30:28;;;;;;;0.30;0.17;;;26.40;68.10;;;;;;4910860;29;20092;-73
2022/08/17 03:32:58;;;;;;;0.75;0.20;;;26.20;68.70;;;;;;4905792;29;20064;-73
2022/08/17 03:35:29;;;;;;;0.50;0.20;;;25.80;66.30;;;;;;4911405;29;20020;-74
2022/08/17 03:37:58;;;;;;;0.38;0.38;;;25.60;67.00;;;;;;4907352;29;20032;-73
2022/08/17 03:40:26;;;;;;;0.85;0.10;;;25.40;68.90;;;;;;4904560;29;20056;-74
2022/08/17 03:42:53;;;;;;;0.30;0.20;;;25.00;69.50;;;;;;4911129;29;20055;-72
2022/08/17 03:56:41;;;;;;;0.30;0.20;;;23.30;71.80;;;;;;4904906;29;20054;-71
2022/08/17 03:59:15;;;;;;;0.55;0.20;;;23.20;71.20;;;;;;4910994;29;20017;-73
2022/08/17 04:01:49;;;;;;;0.40;0.28;;;23.20;71.00;;;;;;4912650;29;20119;-71
2022/08/17 04:04:17;;;;;;;0.52;0.13;;;23.40;72.80;;;;;;4905796;29;20024;-70
2022/08/17 04:06:45;;;;;;;0.90;0.32;;;23.60;72.10;;;;;;4906926;29;20137;-74
2022/08/17 04:09:12;;;;;;;0.38;0.30;;;23.80;71.80;;;;;;4908838;29;20040;-73
2022/08/17 04:11:40;;;;;;;1.27;0.40;;;23.90;71.70;;;;;;4917111;29;20081;-72
2022/08/17 04:14:08;;;;;;;0.22;0.15;;;23.70;71.40;;;;;;4906110;29;20516;-73
2022/08/17 04:16:37;;;;;;;1.77;0.20;;;23.80;72.60;;;;;;4908573;29;20032;-71
2022/08/17 04:19:05;;;;;;;0.98;0.35;;;23.80;71.80;;;;;;4903963;29;20092;-71
2022/08/17 04:21:34;;;;;;;0.32;0.28;;;23.80;70.80;;;;;;4907852;29;20044;-70
2022/08/17 04:24:01;;;;;;;0.50;0.20;;;23.50;69.00;;;;;;4905369;29;20027;-71
2022/08/17 04:26:29;;;;;;;1.13;0.38;;;23.30;70.00;;;;;;4908753;29;20436;-72
2022/08/17 04:28:57;;;;;;;0.28;0.10;;;23.00;71.70;;;;;;4908002;29;20111;-72
2022/08/17 04:31:26;;;;;;;0.88;0.40;;;23.00;72.00;;;;;;4909355;29;20043;-71
2022/08/17 04:33:54;;;;;;;1.77;0.30;;;23.10;72.40;;;;;;4895849;29;20024;-73
2022/08/17 04:36:22;;;;;;;0.50;0.30;;;23.00;72.40;;;;;;4908583;29;20032;-74
2022/08/17 04:38:49;;;;;;;1.83;0.20;;;23.00;72.70;;;;;;4909563;29;20028;-74
2022/08/17 04:44:03;;;;;;;0.47;0.47;;;22.90;72.80;;;;;;4903356;29;20112;-72
2022/08/17 04:46:33;;;;;;;0.32;0.20;;;22.70;71.70;;;;;;4901257;29;20295;-74
2022/08/17 04:49:04;;;;;;;0.20;0.15;;;22.60;73.00;;;;;;4905892;29;20028;-74
2022/08/17 04:51:38;;;;;;;2.20;0.28;;;22.70;73.00;;;;;;4911483;29;20032;-74
2022/08/17 04:54:13;;;;;;;1.02;0.10;;;22.60;72.70;;;;;;4910858;29;20514;-74
2022/08/17 04:56:41;;;;;;;0.75;0.20;;;22.50;73.30;;;;;;4912056;29;20028;-74
2022/08/17 04:59:12;;;;;;;1.45;0.50;;;22.20;72.80;;;;;;4910794;29;20332;-74
2022/08/17 05:01:40;;;;;;;1.45;0.40;;;22.00;72.90;;;;;;4908187;29;20099;-74
2022/08/17 05:04:12;;;;;;;1.00;0.32;;;22.00;74.70;;;;;;4910767;29;20024;-74
2022/08/17 05:06:39;;;;;;;0.65;0.20;;;21.90;73.80;;;;;;4911797;29;20037;-75
2022/08/17 05:09:07;;;;;;;0.28;0.20;;;21.70;75.00;;;;;;4899749;29;20047;-70
2022/08/17 05:11:35;;;;;;;0.38;0.20;;;21.50;75.50;;;;;;4902502;29;20751;-76
2022/08/17 05:14:03;;;;;;;0.50;0.30;;;21.40;76.30;;;;;;4877607;29;20045;-72
2022/08/17 05:16:30;;;;;;;3.20;0.20;;;21.20;73.70;;;;;;4905948;29;20132;-71
2022/08/17 05:18:58;;;;;;;2.80;0.38;;;21.10;73.30;;;;;;4902614;29;20083;-73
2022/08/17 05:21:26;;;;;;;1.27;0.30;;;21.00;73.50;;;;;;4911795;29;20044;-72
2022/08/17 05:23:57;;;;;;;0.38;0.28;;;20.90;74.80;;;;;;4907576;29;20155;-73
2022/08/17 05:26:26;;;;;;;0.40;0.20;;;21.00;75.30;;;;;;4904267;29;20140;-73
2022/08/17 05:28:58;;;;;;;1.20;0.20;;;21.00;75.20;;;;;;4908057;29;20443;-75
2022/08/17 05:31:26;;;;;;;0.88;0.45;;;21.10;75.40;;;;;;4889722;29;20168;-73
2022/08/17 05:33:53;;;;;;;1.35;0.40;;;21.10;75.40;;;;;;4901540;29;20439;-74
2022/08/17 05:36:21;;;;;;;0.95;0.32;;;21.30;75.70;;;;;;4896330;29;20040;-72
2022/08/17 05:38:49;;;;;;;0.68;0.30;;;21.40;74.70;;;;;;4900470;29;22188;-72
2022/08/17 05:41:16;;;;;;;0.80;0.22;;;21.40;75.40;;;;;;4898375;29;20542;-74
2022/08/17 05:43:44;;;;;;;0.70;0.30;;;21.40;74.50;;;;;;4898608;29;20036;-74
2022/08/17 05:46:21;;;;;;;1.55;0.80;;;21.40;74.20;;;;;;4906110;29;20036;-74
2022/08/17 05:48:52;;;;;;;0.25;0.10;;;21.40;73.80;;;;;;4909233;29;20035;-74
2022/08/17 05:51:54;;;;;;;0.13;0.10;;;21.50;73.80;;;;;;4906430;29;20032;-73
2022/08/17 05:54:30;;;;;;;0.30;0.10;;;21.50;74.20;;;;;;4910157;29;20036;-73
2022/08/17 05:57:17;;;;;;;0.75;0.40;;;21.50;74.10;;;;;;4906218;29;20037;-72
2022/08/17 06:00:19;;;;;;;0.60;0.32;;;21.50;73.70;;;;;;4904381;29;20060;-72
2022/08/17 06:03:04;;;;;;;0.68;0.30;;;21.50;73.20;;;;;;4910515;29;20058;-72
2022/08/17 06:06:00;;;;;;;0.40;0.20;;;21.50;73.70;;;;;;4910552;29;20095;-72
2022/08/17 06:08:51;;;;;;;1.90;0.20;;;21.40;73.50;;;;;;4905324;29;20123;-73
2022/08/17 06:11:36;;;;;;;0.45;0.30;;;21.50;74.10;;;;;;4911410;29;20028;-72
2022/08/17 06:14:47;;;;;;;0.60;0.20;;;21.60;73.70;;;;;;4900022;29;20089;-73
2022/08/17 06:17:20;;;;;;;0.60;0.22;;;21.60;73.80;;;;;;4889616;29;20063;-73
2022/08/17 06:19:59;;;;;;;1.80;0.35;;;21.70;73.90;;;;;;4907288;29;20119;-72
2022/08/17 06:22:32;;;;;;;0.68;0.20;;;21.60;73.80;;;;;;4914814;29;20123;-72
2022/08/17 06:25:05;;;;;;;0.95;0.20;;;21.60;73.70;;;;;;4913589;29;20040;-72
2022/08/17 06:27:38;;;;;;;0.80;0.20;;;21.60;74.30;;;;;;4912049;29;20032;-73
2022/08/17 06:30:17;;;;;;;1.20;0.40;;;21.40;74.30;;;;;;4914606;29;20054;-75
2022/08/17 06:32:48;;;;;;;0.35;0.30;;;21.30;74.70;;;;;;4904696;29;20032;-72
2022/08/17 06:35:37;;;;;;;0.20;0.20;;;21.20;74.40;;;;;;4912195;29;20044;-74
2022/08/17 06:38:11;;;;;;;0.30;0.20;;;21.00;74.80;;;;;;4911606;29;20135;-74
2022/08/17 06:41:17;;;;;;;3.92;0.40;;;20.80;74.60;;;;;;4912432;29;20186;-74
2022/08/17 06:44:02;;;;;;;0.20;0.13;;;20.50;75.90;;;;;;4915428;29;20046;-73
2022/08/17 06:46:33;;;;;;;0.57;0.57;;;20.30;76.10;;;;;;4910260;29;20036;-72
2022/08/17 06:49:25;;;;;;;0.20;0.20;;;20.10;77.20;;;;;;4915335;29;20107;-73
2022/08/17 06:52:00;;;;;;;1.23;0.20;;;20.00;77.60;;;;;;4910791;29;20119;-73
2022/08/17 06:54:28;;;;;;;0.47;0.20;;;20.00;79.40;;;;;;4909662;29;20549;-73
2022/08/17 06:57:17;;;;;;;1.20;0.50;;;20.00;77.90;;;;;;4911686;29;20290;-72
2022/08/17 07:00:11;;;;;;;1.75;0.30;;;20.10;77.50;;;;;;4907563;29;20031;-73
2022/08/17 07:02:54;;;;;;;1.10;0.40;;;20.10;77.40;;;;;;4909497;29;20546;-75
2022/08/17 07:05:26;;;;;;;3.40;0.60;;;20.10;80.20;;;;;;4910138;29;20055;-74
2022/08/17 07:08:02;;;;;;;3.20;0.38;;;20.00;82.20;;;;;;4912762;29;20091;-75
2022/08/17 07:10:57;;;;;;;1.73;0.60;;;19.90;83.70;;;;;;4920387;29;20050;-74
2022/08/17 07:13:42;;;;;;;1.70;0.20;;;19.60;84.90;;;;;;4909702;29;20123;-74
2022/08/17 07:16:26;;;;;;;2.50;0.47;;;19.40;86.10;;;;;;4910543;29;20040;-74
2022/08/17 07:18:56;;;;;;;2.00;0.70;;;19.00;87.40;;;;;;4911597;29;20031;-77
2022/08/17 07:21:44;;;;;;;2.80;0.82;;;18.80;88.30;;;;;;4910973;29;20032;-78
2022/08/17 07:24:30;;;;;;;1.52;0.50;;;18.60;88.90;;;;;;4913348;29;20039;-76
2022/08/17 07:27:09;;;;;;;1.08;0.30;;;18.40;90.10;;;;;;4912985;29;20083;-75
2022/08/17 07:30:00;;;;;;;6.43;0.60;;;18.20;90.10;;;;;;4907340;29;20421;-76
2022/08/17 07:32:56;;;;;;;2.28;0.47;;;18.10;90.40;;;;;;4908618;29;20495;-75
2022/08/17 07:35:30;;;;;;;5.18;1.30;;;17.90;90.70;;;;;;4898259;29;20051;-74
2022/08/17 07:38:11;;;;;;;4.13;0.82;;;17.80;91.00;;;;;;4911238;29;20032;-74
2022/08/17 07:40:49;;;;;;;2.55;1.25;;;17.70;91.20;;;;;;4892651;29;20530;-75
2022/08/17 07:43:23;;;;;;;5.07;1.50;;;17.60;91.50;;;;;;4911509;29;20045;-74
2022/08/17 07:48:55;;;;;;;3.22;0.90;;;17.40;92.10;;;;;;4902853;29;20042;-76
2022/08/17 07:51:26;;;;;;;3.97;0.73;;;17.30;92.50;;;;;;4904381;29;20483;-77
2022/08/17 07:53:58;;;;;;;2.65;0.68;;;17.10;92.60;;;;;;4904963;29;20052;-74
2022/08/17 07:56:39;;;;;;;6.15;0.52;;;17.00;92.90;;;;;;4901028;29;20498;-74
2022/08/17 07:59:11;;;;;;;4.57;0.80;;;16.90;93.10;;;;;;4912875;29;20534;-72
2022/08/17 08:01:39;;;;;;;2.80;0.60;;;16.80;93.30;;;;;;4900597;29;20124;-75
2022/08/17 08:04:26;;;;;;;1.75;0.73;;;16.70;93.50;;;;;;4905539;29;20487;-73
2022/08/17 08:06:58;;;;;;;0.73;0.60;;;16.60;93.70;;;;;;4904659;29;20036;-74
2022/08/17 08:10:12;;;;;;;4.75;1.83;;;16.50;93.80;;;;;;4909509;29;20405;-76
2022/08/17 08:12:46;;;;;;;1.13;0.60;;;16.50;94.00;;;;;;4895171;29;20505;-74
2022/08/17 08:15:18;;;;;;;2.22;0.60;;;16.40;94.10;;;;;;4902043;29;20497;-77
2022/08/17 08:17:48;;;;;;;3.35;1.27;;;16.30;94.30;;;;;;4906973;29;20188;-74
2022/08/17 08:20:16;;;;;;;4.78;1.58;;;16.30;94.40;;;;;;4910753;29;20048;-76
2022/08/17 08:22:58;;;;;;;4.75;1.00;;;16.20;94.50;;;;;;4908856;29;20066;-75
2022/08/17 08:25:47;;;;;;;1.92;0.70;;;16.10;94.70;;;;;;4912234;29;20432;-76
2022/08/17 08:28:20;;;;;;;1.02;0.43;;;16.00;94.80;;;;;;4912435;29;20123;-75
2022/08/17 08:31:03;;;;;;;3.83;1.08;;;15.90;95.00;;;;;;4909817;29;20020;-74
2022/08/17 08:33:53;;;;;;;4.80;1.67;;;15.80;95.10;;;;;;4908298;29;20055;-75
2022/08/17 08:36:49;;;;;;;1.83;0.52;;;15.80;95.30;;;;;;4898104;29;20099;-75
2022/08/17 08:39:20;;;;;;;1.75;1.23;;;15.70;95.50;;;;;;4898338;29;20044;-75
2022/08/17 08:41:55;;;;;;;6.82;0.98;;;15.70;95.70;;;;;;4905459;29;20112;-76
2022/08/17 08:44:35;;;;;;;2.38;0.68;;;15.60;95.70;;;;;;4912422;29;20382;-75
2022/08/17 08:47:44;;;;;;;3.03;0.55;;;15.50;95.70;;;;;;4908329;29;20039;-74
2022/08/17 08:50:42;;;;;;;3.20;0.95;;;15.40;96.00;;;;;;4906640;29;20771;-74
2022/08/17 08:53:35;;;;;;;1.40;0.70;;;15.30;96.40;;;;;;4904870;29;20046;-76
2022/08/17 08:56:20;;;;;;;3.88;0.93;;;15.30;96.60;;;;;;4910798;29;20187;-76
2022/08/17 08:59:21;;;;;;;8.02;1.38;;;15.20;96.90;;;;;;4912057;29;20055;-75
2022/08/17 09:02:00;;;;;;;10.75;1.27;;;15.10;97.20;;;;;;4904098;29;20051;-76
2022/08/17 09:04:43;;;;;;;6.63;1.15;;;15.10;97.40;;;;;;4884033;29;20063;-76
2022/08/17 09:07:27;;;;;;;4.20;1.30;;;15.10;97.50;;;;;;4899966;29;20036;-75
2022/08/17 09:10:12;;;;;;;4.60;0.73;;;15.10;97.60;;;;;;4910717;29;20063;-75
2022/08/17 09:12:55;;;;;;;6.25;2.13;;;15.10;97.70;;;;;;4907497;29;20036;-75
2022/08/17 09:15:30;;;;;;;2.17;1.25;;;15.00;97.80;;;;;;4908513;29;20028;-75
2022/08/17 09:18:04;;;;;;;3.85;0.80;;;14.90;98.00;;;;;;4909172;29;20055;-75
2022/08/17 09:20:59;;;;;;;2.78;0.47;;;14.80;98.20;;;;;;4908956;29;20037;-74
2022/08/17 09:23:33;;;;;;;2.70;1.05;;;14.70;98.60;;;;;;4899026;29;20033;-74
2022/08/17 09:26:25;;;;;;;5.15;1.33;;;14.60;98.80;;;;;;4912598;29;20060;-74
2022/08/17 09:29:00;;;;;;;9.95;1.70;;;14.50;99.00;;;;;;4909044;29;20051;-75
2022/08/17 09:31:37;;;;;;;3.58;1.80;;;14.50;99.20;;;;;;4908105;29;20032;-75
2022/08/17 09:34:15;;;;;;;7.82;1.98;;;14.40;99.40;;;;;;4910374;29;20051;-74
2022/08/17 09:37:10;;;;;;;3.38;1.70;;;14.30;99.60;;;;;;4913470;29;20028;-74
2022/08/17 09:39:47;;;;;;;5.07;2.90;;;14.20;99.70;;;;;;4911899;29;20459;-76
2022/08/17 09:42:37;;;;;;;8.23;3.22;;;14.10;99.90;;;;;;4911669;29;20041;-75
2022/08/17 09:45:29;;;;;;;5.57;3.35;;;14.00;99.90;;;;;;4910162;29;20028;-74
2022/08/17 09:48:16;;;;;;;8.05;3.63;;;14.00;99.90;;;;;;4919726;29;20028;-74
2022/08/17 09:50:51;;;;;;;6.82;3.30;;;13.90;99.90;;;;;;4917738;29;20493;-75
2022/08/17 09:53:19;;;;;;;6.18;3.45;;;13.90;99.90;;;;;;4912606;29;20054;-74
2022/08/17 09:55:56;;;;;;;7.00;3.42;;;13.80;99.90;;;;;;4915346;29;20171;-73
2022/08/17 09:58:46;;;;;;;9.25;3.63;;;13.80;99.90;;;;;;4915345;29;20048;-73
2022/08/17 10:01:39;;;;;;;4.97;2.90;;;13.70;99.90;;;;;;4913463;29;20048;-75
2022/08/17 10:04:33;;;;;;;8.82;3.28;;;13.60;99.90;;;;;;4909395;29;20050;-74
2022/08/17 10:07:24;;;;;;;9.75;4.10;;;13.60;99.90;;;;;;4913925;29;20023;-74
2022/08/17 10:10:11;;;;;;;9.90;4.82;;;13.60;99.90;;;;;;4908332;29;20127;-74
2022/08/17 10:12:54;;;;;;;6.05;2.75;;;13.50;99.90;;;;;;4911806;29;20063;-74
2022/08/17 10:15:36;;;;;;;5.47;2.65;;;13.50;99.90;;;;;;4909189;29;20040;-73
2022/08/17 10:18:36;;;;;;;10.55;3.50;;;13.40;99.90;;;;;;4910150;29;20859;-74
2022/08/17 10:27:00;;;;;;;9.23;5.32;;;13.30;99.90;;;;;;4904119;29;20047;-73
2022/08/17 10:29:40;;;;;;;9.70;6.07;;;13.20;99.90;;;;;;4909375;29;20546;-74
2022/08/17 10:32:12;;;;;;;12.15;6.72;;;13.20;99.90;;;;;;4906919;29;20035;-71
2022/08/17 10:34:57;;;;;;;8.80;6.50;;;13.10;99.90;;;;;;4911085;29;20024;-74
2022/08/17 10:37:27;;;;;;;13.82;7.93;;;13.10;99.90;;;;;;4911778;29;20111;-74
2022/08/17 10:40:09;;;;;;;8.63;5.68;;;13.00;99.90;;;;;;4913330;29;20185;-75
2022/08/17 10:43:09;;;;;;;7.13;4.93;;;12.90;99.90;;;;;;4911466;29;20043;-74
2022/08/17 10:45:48;;;;;;;5.40;4.18;;;12.80;99.90;;;;;;4906699;29;20043;-74
2022/08/17 10:48:27;;;;;;;8.23;5.32;;;12.70;99.90;;;;;;4909268;29;20067;-75
2022/08/17 10:51:08;;;;;;;7.18;4.80;;;12.60;99.90;;;;;;4905816;29;20035;-75
2022/08/17 10:53:37;;;;;;;11.32;5.32;;;12.50;99.90;;;;;;4907240;29;20036;-73
2022/08/17 10:56:14;;;;;;;7.70;4.60;;;12.40;99.90;;;;;;4904635;29;20055;-73
2022/08/17 10:58:49;;;;;;;6.70;4.18;;;12.40;99.90;;;;;;4912818;29;20372;-73
2022/08/17 11:01:17;;;;;;;8.07;4.10;;;12.30;99.90;;;;;;4916689;29;20044;-75
2022/08/17 11:03:57;;;;;;;6.03;3.00;;;12.30;99.90;;;;;;4912319;29;20052;-73
2022/08/17 11:06:36;;;;;;;6.63;4.28;;;12.20;99.90;;;;;;4906802;29;20156;-74
2022/08/17 11:09:17;;;;;;;5.28;3.40;;;12.10;99.90;;;;;;4912159;29;20084;-73
2022/08/17 11:12:18;;;;;;;5.60;2.90;;;12.10;99.90;;;;;;4909288;29;20051;-74
2022/08/17 11:15:19;;;;;;;6.15;3.10;;;12.00;99.90;;;;;;4911326;29;20107;-75
2022/08/17 11:17:56;;;;;;;3.83;2.10;;;11.90;99.90;;;;;;4909422;29;20056;-75
2022/08/17 11:20:59;;;;;;;5.40;2.45;;;11.80;99.90;;;;;;4904259;29;20028;-75
2022/08/17 11:23:45;;;;;;;7.10;2.97;;;11.80;99.90;;;;;;4903889;29;20044;-75
2022/08/17 11:26:34;;;;;;;5.75;2.28;;;11.70;99.90;;;;;;4901184;29;20024;-76
2022/08/17 11:29:15;;;;;;;7.90;3.08;;;11.50;99.90;;;;;;4899036;29;20455;-73
2022/08/17 11:31:57;;;;;;;6.50;3.10;;;11.50;99.90;;;;;;4896387;29;20028;-74
2022/08/17 11:34:36;;;;;;;3.90;2.42;;;11.40;99.90;;;;;;4908898;29;20044;-75
2022/08/17 11:37:39;;;;;;;7.32;3.13;;;11.40;99.90;;;;;;4910077;29;20036;-74
2022/08/17 11:40:23;;;;;;;4.78;2.40;;;11.30;99.90;;;;;;4901524;29;20479;-73
2022/08/17 11:43:28;;;;;;;5.35;3.08;;;11.30;99.90;;;;;;4912936;29;20040;-75
2022/08/17 11:45:56;;;;;;;7.82;2.67;;;11.30;99.90;;;;;;4912004;29;20039;-74
2022/08/17 11:51:59;;;;;;;5.25;2.85;;;11.10;99.90;;;;;;4914708;29;20574;-74
2022/08/17 11:54:30;;;;;;;4.97;3.20;;;11.10;99.90;;;;;;4908474;29;20044;-75
2022/08/17 11:56:59;;;;;;;4.05;2.78;;;11.00;99.90;;;;;;4906735;29;20024;-74
2022/08/17 11:59:35;;;;;;;8.65;5.15;;;11.00;99.90;;;;;;4909718;29;20032;-74
2022/08/17 12:02:26;;;;;;;8.20;4.85;;;11.00;99.90;;;;;;4906206;29;20040;-75
2022/08/17 12:05:20;;;;;;;7.55;4.40;;;10.90;99.90;;;;;;4896733;29;20067;-73
2022/08/17 12:08:16;;;;;;;7.70;4.93;;;10.80;99.90;;;;;;4911303;29;20040;-75
2022/08/17 12:11:24;;;;;;;11.02;4.07;;;10.80;99.90;;;;;;4903413;29;20051;-75
2022/08/17 12:13:56;;;;;;;6.75;4.03;;;10.70;99.90;;;;;;4904924;29;20067;-74
2022/08/17 12:16:24;;;;;;;5.90;3.72;;;10.60;99.90;;;;;;4904451;29;20483;-74
2022/08/17 12:19:01;;;;;;;4.93;3.10;;;10.50;99.90;;;;;;4906016;29;20127;-75
2022/08/17 12:21:47;;;;;;;8.35;4.18;;;10.50;99.90;;;;;;4911864;29;20051;-74
2022/08/17 12:24:30;;;;;;;6.20;4.00;;;10.40;99.90;;;;;;4901194;29;20487;-74
2022/08/17 12:27:01;;;;;;;7.10;4.32;;;10.40;99.90;;;;;;4907343;29;20051;-73
2022/08/17 12:29:31;;;;;;;9.25;4.95;;;10.50;99.90;;;;;;4900811;29;20028;-74
2022/08/17 12:32:00;;;;;;;16.00;10.20;;;10.40;99.90;;;;;;4899611;29;20028;-74
2022/08/17 12:34:42;;;;;;;13.00;7.22;;;10.30;99.90;;;;;;4911413;29;20032;-74
2022/08/17 12:37:23;;;;;;;9.07;5.65;;;10.30;99.90;;;;;;4906305;29;20032;-74
2022/08/17 12:40:18;;;;;;;7.55;3.85;;;10.30;99.90;;;;;;4904980;29;20036;-74
2022/08/17 12:43:17;;;;;;;9.60;3.92;;;10.30;99.90;;;;;;4906022;29;20059;-75
2022/08/17 12:46:00;;;;;;;9.70;3.65;;;10.30;99.90;;;;;;4901642;29;20462;-72
2022/08/17 12:48:30;;;;;;;6.40;2.90;;;10.20;99.90;;;;;;4908605;29;20030;-72
2022/08/17 12:51:06;;;;;;;6.93;3.20;;;10.20;99.90;;;;;;4911289;29;20067;-74
2022/08/17 12:53:34;;;;;;;8.52;2.55;;;10.10;99.90;;;;;;4907038;29;20356;-74
2022/08/17 12:56:06;;;;;;;4.90;2.75;;;10.10;99.90;;;;;;4906344;29;20483;-74
2022/08/17 12:58:37;;;;;;;3.65;2.33;;;10.10;99.90;;;;;;4904804;29;20068;-74
2022/08/17 13:01:08;;;;;;;2.72;1.98;;;10.00;99.90;;;;;;4903155;29;20036;-74
2022/08/17 13:03:48;;;;;;;7.90;2.65;;;9.90;99.90;;;;;;4904653;29;20119;-73
2022/08/17 13:06:31;;;;;;;3.40;1.88;;;10.00;99.90;;;;;;4904411;29;20534;-73
2022/08/17 13:09:12;;;;;;;5.55;2.30;;;9.90;99.90;;;;;;4907273;29;20056;-73
2022/08/17 13:11:54;;;;;;;5.43;2.40;;;9.90;99.90;;;;;;4907140;29;20030;-73
2022/08/17 13:14:22;;;;;;;4.60;2.05;;;9.90;99.90;;;;;;4910040;29;20063;-73
2022/08/17 13:16:58;;;;;;;6.28;1.92;;;9.80;99.90;;;;;;4906903;29;20923;-74
2022/08/17 13:19:29;;;;;;;3.00;1.90;;;9.80;99.90;;;;;;4908557;29;20047;-73
2022/08/17 13:22:00;;;;;;;3.95;1.58;;;9.80;99.90;;;;;;4910431;29;20506;-74
2022/08/17 13:24:31;;;;;;;5.40;3.40;;;9.80;99.90;;;;;;4910441;29;20040;-74
2022/08/17 13:27:01;;;;;;;4.28;2.97;;;9.80;99.90;;;;;;4902297;29;20032;-74
2022/08/17 13:29:37;;;;;;;3.67;2.53;;;9.70;99.90;;;;;;4907096;29;20107;-73
2022/08/17 13:32:08;;;;;;;4.63;4.10;;;9.70;99.90;;;;;;4909528;29;20032;-74
2022/08/17 13:34:40;;;;;;;5.00;3.40;;;9.60;99.90;;;;;;4908046;29;20115;-74
2022/08/17 13:40:10;;;;;;;4.55;2.95;;;9.50;99.90;;;;;;4906100;29;20319;-73
2022/08/17 13:42:43;;;;;;;3.67;2.90;;;9.40;99.90;;;;;;4905556;29;20044;-74
2022/08/17 13:45:31;;;;;;;5.28;2.60;;;9.30;99.90;;;;;;4905122;29;20036;-74
2022/08/17 13:48:21;;;;;;;4.88;2.67;;;9.30;99.90;;;;;;4882256;29;20686;-74
2022/08/17 13:50:54;;;;;;;4.47;2.30;;;9.30;99.90;;;;;;4907208;29;20550;-73
2022/08/17 13:53:31;;;;;;;5.35;2.25;;;9.20;99.90;;;;;;4910613;29;20143;-74
2022/08/17 13:56:08;;;;;;;4.28;2.05;;;9.30;99.90;;;;;;4905226;29;20043;-74
2022/08/17 13:58:41;;;;;;;5.85;1.77;;;9.30;99.90;;;;;;4902133;29;20059;-74
2022/08/17 14:01:28;;;;;;;6.72;2.33;;;9.30;99.90;;;;;;4908207;29;20036;-73
2022/08/17 14:03:57;;;;;;;4.70;2.60;;;9.40;99.90;;;;;;4902524;29;20468;-72
2022/08/17 14:06:53;;;;;;;5.15;2.17;;;9.40;99.90;;;;;;4885125;29;20033;-72